Flight Track Log - Related Links

Times and Time Zones

All times are in EDT time to prevent confusion due to time zone crossing. See the ASQ5745 flight status page for this flight to view local times or setup timezone preferences in your user account.

Time Position Orientation Groundspeed Altitude Reporting Facility
EDT Latitude Longitude Course Direction KTS MPH feet Rate Location/Type
Sun 08:34:58 AM 38.9500 -77.5000 North 170 196 1,400  Level Potomac TRACON
Sun 08:37:00 AM 39.2141 -77.4500 North  Level FlightAware Approximate
Sun 08:37:20 AM 39.0797 -77.6239 323° Northwest 271 312 7,400  Level Washington Center
Sun 08:38:00 AM 39.3077 -77.4500 North  Level FlightAware Approximate
Sun 08:38:19 AM 39.1481 -77.6417 349° North 277 319 9,700  Level Washington Center
Sun 08:39:00 AM 39.4012 -77.4500 North  Level FlightAware Approximate
Sun 08:39:20 AM 39.2319 -77.6092 17° North 282 325 11,700  Level Washington Center
Sun 08:40:00 AM 39.4948 -77.4500 North  Level FlightAware Approximate
Sun 08:40:21 AM 39.3244 -77.5742 16° North 305 351 13,200  Level Washington Center
Sun 08:41:19 AM 39.4228 -77.5394 15° North 339 390 14,900 1,932 Climbing Washington Center
Sun 08:42:19 AM 39.5214 -77.4989 18° North 355 409 17,000 2,000 Climbing Washington Center
Sun 08:43:52 AM 39.6800 -77.4556 12° North 367 422 20,000 1,753 Climbing New York Center
Sun 08:44:53 AM 39.7781 -77.4542 North 355 409 21,500 1,388 Climbing New York Center
Sun 08:45:53 AM 39.8783 -77.4531 360° North 355 409 22,800 1,200 Climbing New York Center
Sun 08:46:53 AM 39.9808 -77.4492 North 355 409 23,900 1,068 Climbing New York Center
Sun 08:47:51 AM 40.0850 -77.4483 360° North 363 418 24,900 1,017 Climbing New York Center
Sun 08:48:51 AM 40.1886 -77.4228 11° North 368 423 25,900 1,000 Climbing New York Center
Sun 08:49:51 AM 40.2789 -77.3389 35° Northeast 369 425 26,900 545 Climbing New York Center
Sun 08:50:52 AM 40.3581 -77.2647 36° Northeast 376 433 27,000 50 Climbing New York Center
Sun 08:51:52 AM 40.4481 -77.1806 35° Northeast 383 441 27,000  Level New York Center
Sun 08:52:51 AM 40.5381 -77.0986 35° Northeast 393 452 27,000  Level New York Center
Sun 08:53:52 AM 40.6278 -77.0139 36° Northeast 393 452 27,000  Level New York Center
Sun 08:54:51 AM 40.7156 -76.9317 35° Northeast 393 452 27,000  Level New York Center
Sun 08:55:51 AM 40.8033 -76.8489 36° Northeast 393 452 27,000  Level New York Center
Sun 08:56:52 AM 40.8886 -76.7686 35° Northeast 388 447 27,000  Level New York Center
Sun 08:57:52 AM 40.9739 -76.6911 34° Northeast 382 440 27,000  Level New York Center
Sun 08:58:53 AM 41.0592 -76.6075 36° Northeast 382 440 27,000  Level New York Center
Sun 08:59:53 AM 41.1464 -76.5269 35° Northeast 376 433 27,000  Level New York Center
Sun 09:00:52 AM 41.2317 -76.4458 36° Northeast 376 433 27,000  Level New York Center
Sun 09:01:51 AM 41.3211 -76.3594 36° Northeast 370 426 27,000  Level New York Center
Sun 09:02:51 AM 41.4017 -76.2833 35° Northeast 377 434 27,000  Level New York Center
Sun 09:04:41 AM 41.5514 -76.0911 44° Northeast 364 419 27,000  Level Boston Center
Sun 09:05:41 AM 41.6136 -75.9750 54° Northeast 370 426 27,000  Level Boston Center
Sun 09:06:41 AM 41.6778 -75.8564 54° Northeast 387 445 27,000 -600 Level Boston Center
Sun 09:07:41 AM 41.7417 -75.7372 54° Northeast 393 452 25,800 -1,200 Descending Boston Center
Sun 09:08:41 AM 41.8078 -75.6153 54° Northeast 393 452 24,600 -900 Descending Boston Center
Sun 09:09:41 AM 41.8714 -75.4958 54° Northeast 393 452 24,000 -300 Descending Boston Center
Sun 09:10:41 AM 41.9350 -75.3761 54° Northeast 393 452 24,000  Level Boston Center
Sun 09:11:41 AM 41.9986 -75.2561 54° Northeast 393 452 24,000  Level Boston Center
Sun 09:12:41 AM 42.0619 -75.1358 55° Northeast 393 452 24,000 -750 Level Boston Center
Sun 09:13:41 AM 42.1144 -75.0347 55° Northeast 387 445 22,500 -1,750 Descending Boston Center
Sun 09:14:41 AM 42.1753 -74.9194 55° Northeast 382 440 20,500 -2,000 Descending Boston Center
Sun 09:15:41 AM 42.2339 -74.8125 53° Northeast 369 425 18,500 -1,982 Descending Boston Center
Sun 09:16:30 AM 42.2839 -74.7133 56° Northeast 348 400 16,900 -1,865 Descending Boston Center
Sun 09:16:55 AM 42.3033 -74.6719 58° Northeast 342 394 16,200 -2,113 Descending Boston Center
Sun 09:17:41 AM 42.3467 -74.5864 56° Northeast 346 398 14,400 -2,038 Descending Boston Center
Sun 09:18:41 AM 42.3986 -74.4842 55° Northeast 335 386 12,600 -1,920 Descending Boston Center
Sun 09:18:56 AM 42.4136 -74.4592 51° Northeast 329 379 12,000 -1,800 Descending Boston Center
Sun 09:19:41 AM 42.4525 -74.3844 55° Northeast 323 372 10,800 -1,371 Descending Boston Center
Sun 09:20:41 AM 42.4978 -74.2931 56° Northeast 310 357 9,600 -1,263 Descending Boston Center
Sun 09:20:57 AM 42.5106 -74.2736 48° Northeast 278 320 9,200 -1,600 Descending Boston Center
Sun 09:21:41 AM 42.5408 -74.2097 57° Northeast 282 325 8,000 -1,475 Descending Boston Center
Sun 09:21:58 AM 42.5558 -74.1875 47° Northeast 276 318 7,700 -1,400 Descending Boston Center
Sun 09:22:41 AM 42.5881 -74.1208 57° Northeast 282 325 6,600 -1,600 Descending Boston Center
Sun 09:22:58 AM 42.6050 -74.1100 25° Northeast 284 327 6,100 -1,200 Descending Boston Center
Sun 09:23:41 AM 42.6494 -74.0575 41° Northeast 277 319 5,400 -1,082 Descending Boston Center
Sun 09:23:59 AM 42.6764 -74.0639 350° North 281 323 5,000 -500 Descending Boston Center
Sun 09:24:41 AM 42.7206 -74.0369 24° Northeast 271 312 4,900 -295 Descending Boston Center
Sun 09:25:00 AM 42.7458 -74.0206 25° Northeast 276 318 4,700 -800 Descending Boston Center
Sun 09:25:41 AM 42.7900 -73.9961 22° Northeast 266 306 4,100 -1,091 Descending Boston Center
Sun 09:26:06 AM 42.8214 -73.9800 21° North 249 287 3,500 -1,000 Descending Boston Center
Sun 09:26:41 AM 42.8550 -73.9639 19° North 255 293 3,100 -545 Descending Boston Center
Sun 09:27:01 AM 42.8739 -73.9444 37° Northeast 230 265 3,000 -100 Descending Boston Center
Sun 09:27:41 AM 42.8869 -73.8994 68° East 199 229 3,000 -393 Level Boston Center
Sun 09:28:02 AM 42.8917 -73.8656 79° East 193 222 2,600 -1,143 Descending Boston Center

Login

Don't have an account? Register now (free) for customized features, flight alerts, and more!